createdAt,value
2019-04-10T00:01:20.569Z,33.40
2019-04-10T00:03:51.413Z,38.20
2019-04-10T00:06:22.101Z,40.83
2019-04-10T00:08:53.160Z,37.63
2019-04-10T00:11:23.512Z,33.77
2019-04-10T00:13:53.956Z,30.43
2019-04-10T00:16:25.053Z,30.23
2019-04-10T00:18:56.133Z,30.90
2019-04-10T00:21:26.912Z,27.27
2019-04-10T00:23:57.710Z,29.67
2019-04-10T00:26:28.668Z,32.27
2019-04-10T00:29:00.223Z,29.07
2019-04-10T00:31:31.807Z,26.97
2019-04-10T00:34:02.872Z,27.60
2019-04-10T00:36:33.710Z,25.03
2019-04-10T00:39:04.640Z,22.27
2019-04-10T00:41:36.538Z,26.87
2019-04-10T00:44:07.829Z,26.47
2019-04-10T00:46:38.795Z,24.90
2019-04-10T00:49:09.630Z,32.67
2019-04-10T00:51:40.335Z,32.10
2019-04-10T00:54:11.919Z,29.67
2019-04-10T00:56:43.362Z,32.40
2019-04-10T00:59:14.429Z,31.03
2019-04-10T01:01:45.724Z,30.07
2019-04-10T01:04:16.505Z,26.80
2019-04-10T01:06:48.189Z,26.33
2019-04-10T01:09:19.477Z,29.77
2019-04-10T01:11:51.629Z,30.70
2019-04-10T01:14:23.395Z,29.70
2019-04-10T01:16:56.276Z,33.17
2019-04-10T01:19:26.710Z,31.47
2019-04-10T01:21:58.916Z,31.20
2019-04-10T01:24:30.054Z,32.67
2019-04-10T01:27:01.354Z,28.20
2019-04-10T01:29:32.260Z,39.27
2019-04-10T01:32:03.661Z,35.33
2019-04-10T01:34:35.807Z,30.70
2019-04-10T01:37:06.771Z,30.60
2019-04-10T01:39:38.098Z,34.10
2019-04-10T01:42:08.554Z,31.23
2019-04-10T01:44:40.646Z,35.53
2019-04-10T01:47:11.448Z,36.97
2019-04-10T01:49:42.218Z,40.97
2019-04-10T01:52:13.243Z,36.70
2019-04-10T01:54:45.508Z,38.07
2019-04-10T01:57:16.696Z,49.10
2019-04-10T01:59:47.907Z,39.80
2019-04-10T02:02:27.350Z,30.30
2019-04-10T02:04:58.464Z,31.70
2019-04-10T02:07:29.930Z,30.70
2019-04-10T02:10:01.629Z,27.40
2019-04-10T02:12:32.612Z,31.60
2019-04-10T02:15:03.507Z,24.13
2019-04-10T02:17:35.531Z,24.90
2019-04-10T02:20:08.158Z,24.90
2019-04-10T02:22:38.682Z,23.23
2019-04-10T02:25:11.601Z,22.43
2019-04-10T02:27:42.638Z,20.83
2019-04-10T02:30:17.561Z,23.07
2019-04-10T02:32:49.804Z,30.30
2019-04-10T02:35:22.064Z,31.10
2019-04-10T02:37:55.394Z,31.57
2019-04-10T02:40:25.582Z,38.67
2019-04-10T02:42:56.700Z,32.20
2019-04-10T02:45:27.349Z,35.57
2019-04-10T02:47:59.373Z,35.90
2019-04-10T02:50:31.272Z,40.80
2019-04-10T02:53:03.361Z,36.37
2019-04-10T02:55:35.580Z,36.70
2019-04-10T02:58:07.933Z,43.83
2019-04-10T03:00:38.771Z,31.93
2019-04-10T03:03:09.571Z,38.53
2019-04-10T03:05:40.643Z,38.03
2019-04-10T03:08:13.071Z,38.87
2019-04-10T03:10:51.770Z,68.77
2019-04-10T03:13:17.915Z,49.70
2019-04-10T03:15:49.842Z,41.80
2019-04-10T03:18:21.700Z,44.90
2019-04-10T03:20:52.625Z,35.73
2019-04-10T03:23:23.272Z,38.43
2019-04-10T03:25:54.072Z,36.20
2019-04-10T03:28:25.022Z,35.67
2019-04-10T03:30:58.072Z,34.30
2019-04-10T03:33:39.682Z,38.17
2019-04-10T03:36:09.562Z,48.20
2019-04-10T03:38:54.206Z,40.17
2019-04-10T03:41:13.749Z,41.37
2019-04-10T03:43:45.827Z,170.00
2019-04-10T03:46:19.368Z,40.30
2019-04-10T03:48:50.018Z,39.40
2019-04-10T03:51:20.777Z,39.13
2019-04-10T03:53:51.518Z,32.33
2019-04-10T03:56:23.395Z,35.40
2019-04-10T03:58:54.316Z,31.87
2019-04-10T04:01:26.952Z,33.00
2019-04-10T04:03:59.401Z,41.63
2019-04-10T04:06:30.040Z,36.03
2019-04-10T04:09:07.774Z,37.63
2019-04-10T04:11:34.705Z,35.10
2019-04-10T04:14:06.208Z,34.53
2019-04-10T04:16:37.400Z,35.87
2019-04-10T04:19:10.142Z,38.93
2019-04-10T04:21:41.836Z,30.33
2019-04-10T04:24:12.785Z,31.60
2019-04-10T04:26:43.737Z,35.70
2019-04-10T04:29:14.490Z,34.30
2019-04-10T04:31:45.226Z,41.47
2019-04-10T04:34:15.864Z,54.97
2019-04-10T04:36:48.915Z,38.37
2019-04-10T04:39:24.925Z,73.17
2019-04-10T04:41:52.127Z,43.13
2019-04-10T04:44:24.672Z,45.10
2019-04-10T04:46:55.275Z,53.60
2019-04-10T04:49:26.416Z,36.33
2019-04-10T04:51:58.149Z,41.67
2019-04-10T04:54:29.086Z,40.03
2019-04-10T04:57:00.220Z,35.53
2019-04-10T04:59:30.856Z,40.13
2019-04-10T05:02:03.620Z,49.20
2019-04-10T05:04:35.551Z,46.50
2019-04-10T05:07:08.373Z,39.33
2019-04-10T05:09:40.632Z,38.40
2019-04-10T05:12:11.581Z,32.90
2019-04-10T05:14:42.291Z,37.03
2019-04-10T05:17:15.084Z,37.57
2019-04-10T05:19:46.861Z,34.37
2019-04-10T05:22:18.747Z,33.37
2019-04-10T05:24:49.875Z,35.93
2019-04-10T05:27:20.577Z,36.70
2019-04-10T05:29:51.307Z,40.40
2019-04-10T05:32:23.357Z,32.27
2019-04-10T05:34:55.784Z,37.93
2019-04-10T05:37:33.785Z,28.43
2019-04-10T05:40:05.492Z,30.47
2019-04-10T05:42:37.419Z,36.70
2019-04-10T05:45:09.224Z,29.60
2019-04-10T05:47:40.272Z,24.43
2019-04-10T05:50:10.905Z,34.93
2019-04-10T05:52:41.648Z,29.80
2019-04-10T05:55:12.418Z,21.40
2019-04-10T05:57:43.025Z,27.87
2019-04-10T06:00:16.730Z,29.20
2019-04-10T06:02:48.154Z,24.57
2019-04-10T06:05:20.198Z,25.47
2019-04-10T06:07:51.623Z,24.57
2019-04-10T06:10:22.269Z,23.10
2019-04-10T06:12:53.109Z,18.93
2019-04-10T06:15:23.597Z,22.73
2019-04-10T06:17:54.510Z,20.13
2019-04-10T06:20:26.163Z,17.20
2019-04-10T06:22:56.956Z,19.33
2019-04-10T06:25:28.732Z,20.80
2019-04-10T06:28:01.096Z,17.80
2019-04-10T06:30:32.271Z,19.97
2019-04-10T06:33:04.038Z,21.20
2019-04-10T06:35:35.594Z,16.90
2019-04-10T06:38:06.463Z,15.40
2019-04-10T06:40:37.642Z,14.77
2019-04-10T06:43:08.661Z,16.80
2019-04-10T06:45:39.917Z,19.33
2019-04-10T06:48:12.973Z,18.23
2019-04-10T06:50:44.767Z,13.83
2019-04-10T06:53:18.546Z,23.53
2019-04-10T06:55:49.408Z,17.43
2019-04-10T06:58:20.124Z,21.23
2019-04-10T07:00:53.054Z,23.73
2019-04-10T07:03:23.395Z,16.27
2019-04-10T07:06:06.218Z,23.67
2019-04-10T07:08:27.639Z,22.97
2019-04-10T07:11:04.734Z,19.40
2019-04-10T07:13:30.687Z,25.37
2019-04-10T07:16:02.153Z,25.30
2019-04-10T07:18:35.792Z,27.10
2019-04-10T07:21:08.371Z,19.40
2019-04-10T07:23:39.231Z,23.70
2019-04-10T07:26:10.385Z,21.73
2019-04-10T07:28:43.950Z,27.33
2019-04-10T07:31:13.436Z,25.50
2019-04-10T07:33:45.147Z,29.07
2019-04-10T07:36:16.855Z,24.50
2019-04-10T07:38:47.249Z,25.50
2019-04-10T07:41:21.380Z,28.73
2019-04-10T07:43:55.065Z,21.70
2019-04-10T07:46:23.991Z,25.03
2019-04-10T07:48:54.639Z,21.57
2019-04-10T07:51:25.636Z,20.43
2019-04-10T07:53:56.266Z,20.70
2019-04-10T07:56:27.820Z,27.33
2019-04-10T07:58:58.517Z,26.80
2019-04-10T08:01:29.201Z,21.93
2019-04-10T08:07:31.725Z,25.03
2019-04-10T08:10:01.333Z,26.20
2019-04-10T08:12:39.510Z,24.50
2019-04-10T08:15:04.917Z,23.47
2019-04-10T08:17:36.732Z,25.63
2019-04-10T08:20:07.980Z,35.00
2019-04-10T08:22:39.305Z,24.13
2019-04-10T08:25:10.941Z,23.10
2019-04-10T08:27:41.813Z,24.93
2019-04-10T08:30:12.973Z,27.23
2019-04-10T08:32:53.524Z,26.30
2019-04-10T08:35:17.353Z,24.53
2019-04-10T08:37:48.721Z,25.70
2019-04-10T08:40:21.061Z,23.13
2019-04-10T08:42:52.681Z,27.30
2019-04-10T08:45:23.500Z,26.67
2019-04-10T08:47:54.297Z,21.13
2019-04-10T08:50:26.002Z,26.60
2019-04-10T08:52:57.924Z,26.70
2019-04-10T08:55:28.509Z,25.07
2019-04-10T08:58:00.773Z,27.20
2019-04-10T09:00:32.355Z,27.57
2019-04-10T09:03:02.799Z,35.93
2019-04-10T09:05:33.469Z,35.90
2019-04-10T09:08:04.561Z,26.00
2019-04-10T09:10:35.046Z,34.00
2019-04-10T09:13:06.586Z,39.47
2019-04-10T09:15:38.215Z,28.67
2019-04-10T09:18:11.229Z,28.43
2019-04-10T09:20:42.694Z,31.70
2019-04-10T09:23:26.295Z,29.23
2019-04-10T09:25:49.150Z,29.50
2019-04-10T09:28:19.831Z,25.10
2019-04-10T09:30:51.323Z,36.93
2019-04-10T09:33:26.742Z,42.73
2019-04-10T09:35:55.088Z,28.43
2019-04-10T09:38:26.589Z,29.27
2019-04-10T09:40:57.360Z,27.80
2019-04-10T09:43:27.955Z,26.63
2019-04-10T09:45:58.700Z,23.53
2019-04-10T09:48:29.268Z,25.70
2019-04-10T09:51:00.265Z,22.77
2019-04-10T09:53:30.914Z,26.17
2019-04-10T09:56:01.487Z,19.67
2019-04-10T09:58:32.022Z,30.00
2019-04-10T10:01:04.842Z,23.50
2019-04-10T10:03:36.634Z,27.20
2019-04-10T10:06:07.432Z,26.50
2019-04-10T10:08:38.085Z,28.43
2019-04-10T10:11:09.590Z,22.37
2019-04-10T10:13:40.173Z,29.07
2019-04-10T10:16:11.182Z,21.80
2019-04-10T10:18:41.815Z,22.33
2019-04-10T10:21:12.478Z,20.57
2019-04-10T10:23:44.687Z,19.43
2019-04-10T10:26:15.857Z,17.43
2019-04-10T10:28:47.099Z,16.67
2019-04-10T10:31:18.279Z,21.07
2019-04-10T10:33:50.036Z,17.27
2019-04-10T10:36:22.030Z,15.57
2019-04-10T10:39:03.588Z,16.37
2019-04-10T10:41:26.414Z,16.90
2019-04-10T10:43:57.115Z,18.00
2019-04-10T10:46:27.688Z,14.97
2019-04-10T10:48:58.111Z,14.23
2019-04-10T10:51:28.941Z,16.50
2019-04-10T10:54:03.108Z,17.20
2019-04-10T10:56:34.147Z,19.33
2019-04-10T10:59:06.106Z,20.10
2019-04-10T11:01:37.965Z,20.37
2019-04-10T11:04:08.852Z,19.07
2019-04-10T11:06:51.539Z,14.83
2019-04-10T11:09:15.770Z,12.27
2019-04-10T11:11:47.096Z,16.77
2019-04-10T11:14:17.646Z,18.60
2019-04-10T11:16:49.488Z,15.50
2019-04-10T11:19:21.129Z,23.10
2019-04-10T11:21:51.556Z,25.53
2019-04-10T11:24:23.192Z,28.00
2019-04-10T11:26:54.043Z,17.90
2019-04-10T11:29:24.762Z,21.60
2019-04-10T11:31:55.698Z,29.77
2019-04-10T11:34:26.527Z,21.83
2019-04-10T11:39:33.079Z,25.43
2019-04-10T11:42:02.396Z,26.00
2019-04-10T11:44:34.754Z,21.30
2019-04-10T11:47:09.509Z,24.80
2019-04-10T11:49:44.388Z,24.67
2019-04-10T11:52:14.579Z,25.77
2019-04-10T11:54:46.901Z,31.27
2019-04-10T11:57:20.428Z,32.67
2019-04-10T11:59:51.019Z,26.50
2019-04-10T12:02:25.003Z,25.20
2019-04-10T12:04:59.191Z,29.33
2019-04-10T12:07:55.024Z,28.07
2019-04-10T12:12:31.837Z,33.03
2019-04-10T12:15:03.886Z,25.00
2019-04-10T12:17:36.052Z,26.53
2019-04-10T12:20:08.902Z,24.60
2019-04-10T12:22:40.596Z,21.37
2019-04-10T12:25:12.377Z,24.43
2019-04-10T12:27:43.376Z,20.63
2019-04-10T12:30:15.288Z,26.17
2019-04-10T12:32:47.492Z,17.67
2019-04-10T12:35:18.075Z,16.63
2019-04-10T12:37:57.827Z,21.13
2019-04-10T12:40:21.518Z,19.30
2019-04-10T12:42:52.493Z,27.90
2019-04-10T12:45:24.327Z,22.60
2019-04-10T12:47:54.942Z,27.07
2019-04-10T12:50:25.277Z,21.37
2019-04-10T12:52:56.694Z,23.20
2019-04-10T12:55:28.322Z,23.60
2019-04-10T12:58:06.538Z,23.57
2019-04-10T13:00:34.479Z,27.63
2019-04-10T13:03:05.515Z,22.10
2019-04-10T13:05:37.521Z,24.83
2019-04-10T13:08:19.124Z,23.03
2019-04-10T13:10:45.585Z,21.30
2019-04-10T13:13:16.022Z,24.27
2019-04-10T13:15:47.693Z,18.17
2019-04-10T13:18:20.451Z,23.07
2019-04-10T13:20:50.973Z,16.70
2019-04-10T13:23:22.488Z,16.00
2019-04-10T13:25:58.365Z,16.27
2019-04-10T13:28:27.646Z,18.50
2019-04-10T13:30:59.507Z,15.87
2019-04-10T13:33:30.963Z,20.87
2019-04-10T13:36:01.379Z,18.10
2019-04-10T13:38:33.906Z,18.40
2019-04-10T13:41:04.649Z,17.90
2019-04-10T13:43:38.081Z,15.53
2019-04-10T13:46:09.192Z,17.53
2019-04-10T13:48:39.815Z,16.57
2019-04-10T13:51:11.126Z,15.67
2019-04-10T13:53:42.429Z,17.40
2019-04-10T13:56:13.030Z,18.30
2019-04-10T13:58:44.581Z,19.13
2019-04-10T14:01:20.569Z,17.90
2019-04-10T14:03:52.430Z,16.07
2019-04-10T14:06:23.071Z,16.70
2019-04-10T14:09:07.790Z,15.80
2019-04-10T14:11:27.048Z,13.57
2019-04-10T14:13:57.764Z,14.53
2019-04-10T14:16:28.787Z,13.73
2019-04-10T14:18:59.390Z,18.53
2019-04-10T14:21:31.135Z,14.77
2019-04-10T14:24:04.089Z,18.73
2019-04-10T14:26:58.026Z,14.87
2019-04-10T14:29:30.138Z,13.60
2019-04-10T14:32:03.356Z,15.70
2019-04-10T14:34:34.515Z,14.73
2019-04-10T14:37:07.296Z,13.03
2019-04-10T14:39:37.736Z,14.00
2019-04-10T14:42:10.575Z,14.43
2019-04-10T14:44:41.074Z,11.83
2019-04-10T14:47:13.420Z,18.70
2019-04-10T14:49:45.154Z,13.87
2019-04-10T14:52:17.179Z,12.73
2019-04-10T14:54:48.306Z,15.40
2019-04-10T14:57:20.967Z,13.23
2019-04-10T14:59:52.535Z,11.40
2019-04-10T15:02:24.404Z,9.37
2019-04-10T15:04:56.002Z,8.93
2019-04-10T15:07:26.809Z,13.97
2019-04-10T15:09:58.105Z,13.97
2019-04-10T15:12:30.138Z,9.60
2019-04-10T15:15:01.736Z,8.50
2019-04-10T15:17:32.909Z,10.33
2019-04-10T15:20:05.687Z,12.87
2019-04-10T15:22:36.416Z,10.87
2019-04-10T15:25:08.845Z,10.20
2019-04-10T15:27:39.645Z,11.90
2019-04-10T15:30:10.549Z,11.53
2019-04-10T15:32:42.155Z,12.40
2019-04-10T15:35:12.981Z,10.90
2019-04-10T15:37:43.312Z,11.10
2019-04-10T15:40:20.806Z,6.97
2019-04-10T15:42:48.665Z,11.93
2019-04-10T15:45:19.672Z,13.40
2019-04-10T15:47:54.138Z,8.30
2019-04-10T15:50:22.844Z,8.70
2019-04-10T15:52:53.736Z,7.63
2019-04-10T15:55:25.783Z,7.67
2019-04-10T15:57:59.126Z,9.47
2019-04-10T16:00:29.463Z,11.13
2019-04-10T16:03:00.757Z,7.40
2019-04-10T16:05:31.508Z,7.40
2019-04-10T16:08:02.974Z,10.13
2019-04-10T16:10:55.149Z,11.53
2019-04-10T16:13:57.004Z,11.30
2019-04-10T16:16:50.835Z,8.30
2019-04-10T16:19:51.400Z,7.40
2019-04-10T16:22:51.111Z,6.73
2019-04-10T16:25:31.184Z,9.60
2019-04-10T16:28:04.134Z,11.87
2019-04-10T16:30:35.343Z,8.23
2019-04-10T16:33:07.218Z,10.90
2019-04-10T16:35:38.390Z,20.43
2019-04-10T16:38:09.296Z,13.43
2019-04-10T16:40:40.485Z,21.53
2019-04-10T16:43:11.733Z,22.80
2019-04-10T16:45:42.622Z,17.83
2019-04-10T16:48:14.774Z,17.60
2019-04-10T16:50:45.839Z,30.03
2019-04-10T16:53:18.028Z,26.33
2019-04-10T16:55:49.939Z,30.87
2019-04-10T16:58:20.726Z,17.00
2019-04-10T17:00:51.182Z,15.83
2019-04-10T17:03:21.862Z,37.20
2019-04-10T17:05:53.629Z,27.93
2019-04-10T17:08:24.734Z,27.17
2019-04-10T17:10:57.076Z,32.27
2019-04-10T17:13:28.779Z,42.37
2019-04-10T17:16:01.629Z,35.80
2019-04-10T17:18:32.942Z,55.40
2019-04-10T17:21:04.785Z,52.23
2019-04-10T17:23:36.427Z,49.57
2019-04-10T17:26:08.684Z,54.30
2019-04-10T17:28:40.719Z,46.80
2019-04-10T17:31:11.529Z,44.07
2019-04-10T17:33:43.924Z,42.40
2019-04-10T17:36:14.407Z,40.50
2019-04-10T17:38:46.799Z,40.70
2019-04-10T17:41:17.727Z,35.83
2019-04-10T17:43:49.538Z,27.83
2019-04-10T17:46:20.375Z,28.47
2019-04-10T17:48:51.659Z,27.33
2019-04-10T17:51:22.704Z,27.00
2019-04-10T17:53:53.999Z,32.57
2019-04-10T17:56:24.370Z,37.90
2019-04-10T17:58:56.060Z,50.87
2019-04-10T18:01:27.660Z,80.20
2019-04-10T18:04:01.775Z,115.60
2019-04-10T18:06:31.433Z,100.53
2019-04-10T18:09:02.294Z,92.00
2019-04-10T18:11:34.637Z,85.90
2019-04-10T18:14:06.923Z,53.33
2019-04-10T18:16:40.036Z,50.77
2019-04-10T18:19:14.142Z,46.60
2019-04-10T18:21:44.363Z,51.70
2019-04-10T18:24:15.788Z,53.90
2019-04-10T18:26:50.475Z,67.53
2019-04-10T18:29:21.407Z,75.43
2019-04-10T18:31:52.185Z,78.50
2019-04-10T18:34:22.853Z,68.77
2019-04-10T18:36:54.568Z,83.00
2019-04-10T18:39:26.153Z,76.73
2019-04-10T18:41:59.321Z,49.70
2019-04-10T18:44:29.124Z,53.27
2019-04-10T18:47:00.667Z,44.53
2019-04-10T18:49:31.721Z,40.60
2019-04-10T18:52:03.349Z,53.07
2019-04-10T18:54:34.092Z,55.77
2019-04-10T18:57:05.364Z,79.33
2019-04-10T18:59:44.865Z,81.57
2019-04-10T19:02:34.902Z,78.93
2019-04-10T19:05:31.845Z,76.57
2019-04-10T19:08:03.189Z,75.80
2019-04-10T19:10:38.922Z,49.57
2019-04-10T19:13:09.702Z,42.23
2019-04-10T19:15:41.633Z,36.57
2019-04-10T19:18:13.274Z,46.83
2019-04-10T19:20:43.892Z,42.47
2019-04-10T19:23:14.977Z,41.73
2019-04-10T19:25:46.997Z,56.20
2019-04-10T19:28:28.015Z,47.83
2019-04-10T19:31:09.640Z,55.60
2019-04-10T19:33:28.990Z,58.23
2019-04-10T19:35:59.695Z,74.50
2019-04-10T19:38:31.510Z,83.27
2019-04-10T19:41:02.656Z,62.07
2019-04-10T19:43:34.484Z,61.00
2019-04-10T19:46:06.184Z,59.63
2019-04-10T19:48:36.933Z,52.30
2019-04-10T19:51:08.049Z,50.73
2019-04-10T19:53:39.513Z,50.50
2019-04-10T19:56:10.932Z,39.77
2019-04-10T19:58:41.903Z,40.90
2019-04-10T20:01:12.782Z,39.57
2019-04-10T20:03:43.858Z,42.40
2019-04-10T20:06:14.395Z,41.37
2019-04-10T20:08:45.954Z,36.20
2019-04-10T20:11:16.992Z,35.53
2019-04-10T20:13:47.414Z,34.97
2019-04-10T20:16:17.919Z,27.77
2019-04-10T20:18:48.723Z,41.53
2019-04-10T20:21:19.651Z,32.10
2019-04-10T20:23:50.495Z,39.03
2019-04-10T20:26:21.093Z,38.30
2019-04-10T20:28:51.856Z,29.00
2019-04-10T20:31:29.292Z,36.23
2019-04-10T20:34:00.260Z,30.50
2019-04-10T20:36:31.182Z,34.33
2019-04-10T20:39:03.060Z,33.30
2019-04-10T20:41:44.789Z,30.77
2019-04-10T20:44:07.263Z,30.10
2019-04-10T20:46:38.200Z,28.20
2019-04-10T20:49:09.907Z,30.43
2019-04-10T20:51:44.069Z,29.80
2019-04-10T20:54:14.836Z,29.23
2019-04-10T20:56:45.147Z,33.80
2019-04-10T20:59:15.642Z,35.10
2019-04-10T21:01:47.009Z,34.63
2019-04-10T21:04:17.586Z,31.73
2019-04-10T21:06:48.212Z,35.53
2019-04-10T21:09:19.133Z,32.23
2019-04-10T21:11:59.731Z,37.10
2019-04-10T21:14:21.829Z,43.20
2019-04-10T21:16:52.529Z,38.13
2019-04-10T21:19:24.756Z,40.10
2019-04-10T21:21:55.881Z,45.10
2019-04-10T21:24:27.434Z,39.47
2019-04-10T21:26:59.053Z,40.00
2019-04-10T21:30:03.880Z,41.50
2019-04-10T21:32:49.987Z,46.10
2019-04-10T21:35:25.339Z,53.37
2019-04-10T21:37:56.919Z,54.67
2019-04-10T21:40:27.386Z,65.80
2019-04-10T21:42:58.264Z,51.80
2019-04-10T21:45:29.838Z,51.03
2019-04-10T21:48:00.511Z,61.70
2019-04-10T21:50:31.472Z,55.50
2019-04-10T21:53:01.980Z,55.17
2019-04-10T21:55:32.856Z,48.30
2019-04-10T21:58:03.882Z,45.73
2019-04-10T22:00:52.653Z,49.53
2019-04-10T22:03:23.739Z,45.23
2019-04-10T22:06:05.699Z,45.13
2019-04-10T22:08:41.913Z,39.47
2019-04-10T22:11:12.826Z,37.03
2019-04-10T22:13:44.443Z,39.40
2019-04-10T22:16:17.873Z,39.43
2019-04-10T22:18:48.431Z,36.10
2019-04-10T22:21:18.676Z,42.47
2019-04-10T22:23:49.285Z,37.60
2019-04-10T22:26:20.067Z,48.93
2019-04-10T22:28:50.560Z,54.07
2019-04-10T22:31:21.159Z,55.57
2019-04-10T22:33:52.349Z,55.03
2019-04-10T22:36:23.021Z,46.10
2019-04-10T22:38:55.120Z,48.20
2019-04-10T22:41:30.636Z,40.13
2019-04-10T22:43:58.364Z,50.10
2019-04-10T22:46:29.942Z,42.57
2019-04-10T22:49:00.572Z,40.00
2019-04-10T22:51:31.180Z,43.13
2019-04-10T22:54:02.554Z,42.87
2019-04-10T22:56:33.675Z,35.43
2019-04-10T22:59:05.941Z,35.20
2019-04-10T23:01:37.602Z,37.27
2019-04-10T23:04:08.191Z,37.73
2019-04-10T23:06:39.648Z,27.33
2019-04-10T23:09:12.232Z,27.20
2019-04-10T23:11:45.378Z,25.63
2019-04-10T23:14:14.808Z,22.97
2019-04-10T23:16:46.100Z,24.30
2019-04-10T23:19:16.842Z,24.90
2019-04-10T23:21:49.064Z,25.67
2019-04-10T23:24:19.896Z,25.30
2019-04-10T23:26:50.642Z,24.93
2019-04-10T23:29:22.346Z,24.53
2019-04-10T23:31:54.260Z,23.90
2019-04-10T23:34:26.173Z,22.73
2019-04-10T23:36:56.754Z,25.30
2019-04-10T23:39:28.207Z,22.83
2019-04-10T23:41:59.069Z,22.80
2019-04-10T23:44:29.696Z,27.70
2019-04-10T23:47:00.380Z,24.33
2019-04-10T23:49:30.969Z,20.00
2019-04-10T23:52:01.477Z,26.63
2019-04-10T23:54:33.241Z,24.30
2019-04-10T23:57:03.819Z,17.30
2019-04-10T23:59:35.034Z,21.67
